createdAt,value
2022-12-06T00:00:45.075Z,4.80
2022-12-06T00:01:45.134Z,3.60
2022-12-06T00:02:45.195Z,2.40
2022-12-06T00:03:45.220Z,2.90
2022-12-06T00:04:45.138Z,3.10
2022-12-06T00:05:46.469Z,3.20
2022-12-06T00:06:45.174Z,3.30
2022-12-06T00:07:45.231Z,3.40
2022-12-06T00:08:45.212Z,3.10
2022-12-06T00:09:45.218Z,2.80
2022-12-06T00:10:45.236Z,2.60
2022-12-06T00:11:45.251Z,3.10
2022-12-06T00:12:45.276Z,3.30
2022-12-06T00:13:45.292Z,2.60
2022-12-06T00:14:45.301Z,2.30
2022-12-06T00:15:45.326Z,2.60
2022-12-06T00:16:45.535Z,3.00
2022-12-06T00:17:45.354Z,3.10
2022-12-06T00:18:45.389Z,3.40
2022-12-06T00:19:45.388Z,3.30
2022-12-06T00:20:45.406Z,4.20
2022-12-06T00:21:45.412Z,3.60
2022-12-06T00:22:45.434Z,2.90
2022-12-06T00:23:45.446Z,3.00
2022-12-06T00:24:45.472Z,2.80
2022-12-06T00:25:45.484Z,2.50
2022-12-06T00:26:45.501Z,3.10
2022-12-06T00:27:45.518Z,3.70
2022-12-06T00:28:45.537Z,3.30
2022-12-06T00:29:45.550Z,2.90
2022-12-06T00:30:45.560Z,3.10
2022-12-06T00:31:45.614Z,2.80
2022-12-06T00:32:46.401Z,2.70
2022-12-06T00:33:45.617Z,3.30
2022-12-06T00:34:45.649Z,3.60
2022-12-06T00:35:45.642Z,3.50
2022-12-06T00:36:45.671Z,2.40
2022-12-06T00:37:45.679Z,2.90
2022-12-06T00:38:45.697Z,2.90
2022-12-06T00:39:45.704Z,3.10
2022-12-06T00:40:45.721Z,3.00
2022-12-06T00:41:45.745Z,3.40
2022-12-06T00:42:45.754Z,3.70
2022-12-06T00:43:45.769Z,3.30
2022-12-06T00:44:45.785Z,3.30
2022-12-06T00:45:45.948Z,2.80
2022-12-06T00:46:45.827Z,3.40
2022-12-06T00:47:45.833Z,3.20
2022-12-06T00:48:45.861Z,3.00
2022-12-06T00:49:45.874Z,4.40
2022-12-06T00:50:45.902Z,3.40
2022-12-06T00:51:45.899Z,2.60
2022-12-06T00:52:45.916Z,2.60
2022-12-06T00:53:45.938Z,2.90
2022-12-06T00:54:45.955Z,4.10
2022-12-06T00:55:45.971Z,2.90
2022-12-06T00:56:45.988Z,3.50
2022-12-06T00:57:45.994Z,3.00
2022-12-06T00:58:46.019Z,3.30
2022-12-06T00:59:46.027Z,3.30
2022-12-06T01:00:46.051Z,4.40
2022-12-06T01:01:46.111Z,3.40
2022-12-06T01:02:46.104Z,4.00
2022-12-06T01:03:46.138Z,3.20
2022-12-06T01:04:46.110Z,3.60
2022-12-06T01:05:46.126Z,2.80
2022-12-06T01:06:46.173Z,2.90
2022-12-06T01:07:46.236Z,3.80
2022-12-06T01:08:46.181Z,2.80
2022-12-06T01:09:46.193Z,3.30
2022-12-06T01:10:46.216Z,4.00
2022-12-06T01:11:46.228Z,3.40
2022-12-06T01:12:46.240Z,3.30
2022-12-06T01:13:46.260Z,3.50
2022-12-06T01:14:46.276Z,3.80
2022-12-06T01:15:46.285Z,3.70
2022-12-06T01:16:46.374Z,4.30
2022-12-06T01:17:46.323Z,3.20
2022-12-06T01:18:46.334Z,3.80
2022-12-06T01:19:46.355Z,3.40
2022-12-06T01:20:46.366Z,3.20
2022-12-06T01:21:46.382Z,3.50
2022-12-06T01:22:46.423Z,3.30
2022-12-06T01:23:46.414Z,3.10
2022-12-06T01:24:46.432Z,3.40
2022-12-06T01:25:46.450Z,4.10
2022-12-06T01:26:46.868Z,3.40
2022-12-06T01:27:46.486Z,4.80
2022-12-06T01:28:46.504Z,3.80
2022-12-06T01:29:46.511Z,3.70
2022-12-06T01:30:46.567Z,4.00
2022-12-06T01:31:46.551Z,3.30
2022-12-06T01:32:46.566Z,4.20
2022-12-06T01:33:46.574Z,3.30
2022-12-06T01:34:46.591Z,3.90
2022-12-06T01:35:46.616Z,3.20
2022-12-06T01:36:46.625Z,2.90
2022-12-06T01:37:46.648Z,3.20
2022-12-06T01:38:46.682Z,4.10
2022-12-06T01:39:46.672Z,3.50
2022-12-06T01:40:46.688Z,3.90
2022-12-06T01:41:46.714Z,2.90
2022-12-06T01:42:46.727Z,3.40
2022-12-06T01:43:46.744Z,3.20
2022-12-06T01:44:46.761Z,3.40
2022-12-06T01:45:46.849Z,4.00
2022-12-06T01:46:46.784Z,4.40
2022-12-06T01:47:46.801Z,2.90
2022-12-06T01:48:46.824Z,3.40
2022-12-06T01:49:46.833Z,4.40
2022-12-06T01:50:46.850Z,3.40
2022-12-06T01:51:46.866Z,3.90
2022-12-06T01:52:46.889Z,3.60
2022-12-06T01:53:46.901Z,3.40
2022-12-06T01:54:46.930Z,4.20
2022-12-06T01:55:46.938Z,3.70
2022-12-06T01:56:46.954Z,4.10
2022-12-06T01:57:46.961Z,4.80
2022-12-06T01:58:46.985Z,2.60
2022-12-06T01:59:46.996Z,3.10
2022-12-06T02:00:47.019Z,4.50
2022-12-06T02:01:47.119Z,3.60
2022-12-06T02:02:47.092Z,3.20
2022-12-06T02:03:47.145Z,3.30
2022-12-06T02:04:47.076Z,3.40
2022-12-06T02:05:47.091Z,4.10
2022-12-06T02:06:47.108Z,3.30
2022-12-06T02:07:47.177Z,4.10
2022-12-06T02:08:47.145Z,4.30
2022-12-06T02:09:47.154Z,2.90
2022-12-06T02:10:47.196Z,4.20
2022-12-06T02:11:47.198Z,5.10
2022-12-06T02:12:47.204Z,3.40
2022-12-06T02:13:47.223Z,3.50
2022-12-06T02:14:47.236Z,4.20
2022-12-06T02:15:47.259Z,3.20
2022-12-06T02:16:47.338Z,4.00
2022-12-06T02:17:47.283Z,2.80
2022-12-06T02:18:47.302Z,3.30
2022-12-06T02:19:47.322Z,3.70
2022-12-06T02:20:47.339Z,5.10
2022-12-06T02:21:47.356Z,4.20
2022-12-06T02:22:47.363Z,3.60
2022-12-06T02:23:47.379Z,4.60
2022-12-06T02:24:47.403Z,3.70
2022-12-06T02:25:47.417Z,4.80
2022-12-06T02:26:47.446Z,3.70
2022-12-06T02:27:47.472Z,4.70
2022-12-06T02:28:47.467Z,4.70
2022-12-06T02:29:47.475Z,4.90
2022-12-06T02:30:47.605Z,3.10
2022-12-06T02:31:47.508Z,3.90
2022-12-06T02:32:53.215Z,4.30
2022-12-06T02:33:47.546Z,3.80
2022-12-06T02:34:47.563Z,4.70
2022-12-06T02:35:47.578Z,3.60
2022-12-06T02:36:47.594Z,3.90
2022-12-06T02:37:47.613Z,3.40
2022-12-06T02:38:47.626Z,4.70
2022-12-06T02:39:47.644Z,2.70
2022-12-06T02:40:47.651Z,3.20
2022-12-06T02:41:47.669Z,3.00
2022-12-06T02:42:47.703Z,4.10
2022-12-06T02:43:47.708Z,3.30
2022-12-06T02:44:47.727Z,3.70
2022-12-06T02:45:47.797Z,4.60
2022-12-06T02:46:47.747Z,4.00
2022-12-06T02:47:47.767Z,4.10
2022-12-06T02:48:47.780Z,3.30
2022-12-06T02:49:47.796Z,3.30
2022-12-06T02:50:47.811Z,4.20
2022-12-06T02:51:47.837Z,3.70
2022-12-06T02:52:47.851Z,3.60
2022-12-06T02:53:47.865Z,4.00
2022-12-06T02:54:47.883Z,4.10
2022-12-06T02:55:47.901Z,3.50
2022-12-06T02:56:47.916Z,4.40
2022-12-06T02:57:47.933Z,4.10
2022-12-06T02:58:47.959Z,4.00
2022-12-06T02:59:47.963Z,4.00
2022-12-06T03:00:47.974Z,4.30
2022-12-06T03:01:48.043Z,4.70
2022-12-06T03:02:48.059Z,3.90
2022-12-06T03:03:48.034Z,5.40
2022-12-06T03:04:48.043Z,3.40
2022-12-06T03:05:48.058Z,3.00
2022-12-06T03:06:48.075Z,4.70
2022-12-06T03:07:48.134Z,3.70
2022-12-06T03:08:48.129Z,4.00
2022-12-06T03:09:48.124Z,3.70
2022-12-06T03:10:48.133Z,4.10
2022-12-06T03:11:48.148Z,3.40
2022-12-06T03:12:48.164Z,3.80
2022-12-06T03:13:48.179Z,3.40
2022-12-06T03:14:48.222Z,4.70
2022-12-06T03:15:48.252Z,5.10
2022-12-06T03:16:48.229Z,4.00
2022-12-06T03:17:48.243Z,6.00
2022-12-06T03:18:48.272Z,3.40
2022-12-06T03:19:48.283Z,4.60
2022-12-06T03:20:48.294Z,3.90
2022-12-06T03:21:48.317Z,4.20
2022-12-06T03:22:48.326Z,3.50
2022-12-06T03:23:48.341Z,4.30
2022-12-06T03:24:48.357Z,3.40
2022-12-06T03:25:48.373Z,3.60
2022-12-06T03:26:48.400Z,4.40
2022-12-06T03:27:48.418Z,5.30
2022-12-06T03:28:48.422Z,3.90
2022-12-06T03:29:48.436Z,4.00
2022-12-06T03:30:48.520Z,3.60
2022-12-06T03:31:48.468Z,4.00
2022-12-06T03:32:48.491Z,4.20
2022-12-06T03:33:48.500Z,4.40
2022-12-06T03:34:48.524Z,5.10
2022-12-06T03:35:48.539Z,3.80
2022-12-06T03:36:48.556Z,3.70
2022-12-06T03:37:48.572Z,3.60
2022-12-06T03:38:48.588Z,3.50
2022-12-06T03:39:48.600Z,4.80
2022-12-06T03:40:48.612Z,4.10
2022-12-06T03:41:48.627Z,5.20
2022-12-06T03:42:48.643Z,4.20
2022-12-06T03:43:48.661Z,3.60
2022-12-06T03:44:48.684Z,5.20
2022-12-06T03:45:48.757Z,4.70
2022-12-06T03:46:48.809Z,5.10
2022-12-06T03:47:48.725Z,3.80
2022-12-06T03:48:48.740Z,3.40
2022-12-06T03:49:48.762Z,3.10
2022-12-06T03:50:50.956Z,4.00
2022-12-06T03:51:48.795Z,3.10
2022-12-06T03:52:48.805Z,4.10
2022-12-06T03:53:48.820Z,3.70
2022-12-06T03:54:48.843Z,3.30
2022-12-06T03:55:48.858Z,3.00
2022-12-06T03:56:48.876Z,3.90
2022-12-06T03:57:48.883Z,4.30
2022-12-06T03:58:48.899Z,3.90
2022-12-06T03:59:48.923Z,4.60
2022-12-06T04:00:48.939Z,3.00
2022-12-06T04:01:49.037Z,3.20
2022-12-06T04:02:48.989Z,3.20
2022-12-06T04:03:49.009Z,4.00
2022-12-06T04:04:48.997Z,3.90
2022-12-06T04:05:49.022Z,3.10
2022-12-06T04:06:49.026Z,3.20
2022-12-06T04:07:49.123Z,2.90
2022-12-06T04:08:49.066Z,4.50
2022-12-06T04:09:49.081Z,4.10
2022-12-06T04:10:49.098Z,3.10
2022-12-06T04:11:49.108Z,4.10
2022-12-06T04:12:49.124Z,2.90
2022-12-06T04:13:49.145Z,3.30
2022-12-06T04:14:49.163Z,3.40
2022-12-06T04:15:49.308Z,2.90
2022-12-06T04:16:49.193Z,3.30
2022-12-06T04:17:49.208Z,2.80
2022-12-06T04:18:49.257Z,5.60
2022-12-06T04:19:52.085Z,3.30
2022-12-06T04:20:49.251Z,2.80
2022-12-06T04:21:49.264Z,3.60
2022-12-06T04:22:49.290Z,3.30
2022-12-06T04:23:49.301Z,3.00
2022-12-06T04:24:49.320Z,3.00
2022-12-06T04:25:49.329Z,3.10
2022-12-06T04:26:49.353Z,2.30
2022-12-06T04:27:49.361Z,3.00
2022-12-06T04:28:49.379Z,4.10
2022-12-06T04:29:49.392Z,2.70
2022-12-06T04:30:49.409Z,3.20
2022-12-06T04:31:49.486Z,3.30
2022-12-06T04:32:49.441Z,2.80
2022-12-06T04:33:49.463Z,2.80
2022-12-06T04:34:49.501Z,2.50
2022-12-06T04:35:49.496Z,2.80
2022-12-06T04:36:49.505Z,3.10
2022-12-06T04:37:49.527Z,3.80
2022-12-06T04:38:49.544Z,2.50
2022-12-06T04:39:49.559Z,3.50
2022-12-06T04:40:49.571Z,2.80
2022-12-06T04:41:49.592Z,2.80
2022-12-06T04:42:49.603Z,3.10
2022-12-06T04:43:49.616Z,2.30
2022-12-06T04:44:49.636Z,3.70
2022-12-06T04:45:49.657Z,3.00
2022-12-06T04:46:49.694Z,2.50
2022-12-06T04:47:49.687Z,3.00
2022-12-06T04:48:49.703Z,2.70
2022-12-06T04:49:49.712Z,3.20
2022-12-06T04:50:49.745Z,2.40
2022-12-06T04:51:49.751Z,2.50
2022-12-06T04:52:49.768Z,2.60
2022-12-06T04:53:49.785Z,2.70
2022-12-06T04:54:49.791Z,2.60
2022-12-06T04:55:49.816Z,2.70
2022-12-06T04:56:49.825Z,3.00
2022-12-06T04:57:49.845Z,2.70
2022-12-06T04:58:49.863Z,2.20
2022-12-06T04:59:49.872Z,3.00
2022-12-06T05:00:49.946Z,2.70
2022-12-06T05:01:49.911Z,2.80
2022-12-06T05:02:49.918Z,3.50
2022-12-06T05:03:50.012Z,3.80
2022-12-06T05:04:49.961Z,3.20
2022-12-06T05:05:49.964Z,2.70
2022-12-06T05:06:50.009Z,2.80
2022-12-06T05:07:50.084Z,3.50
2022-12-06T05:08:50.023Z,3.00
2022-12-06T05:09:50.042Z,3.00
2022-12-06T05:10:50.055Z,2.70
2022-12-06T05:11:50.061Z,3.40
2022-12-06T05:12:50.084Z,3.30
2022-12-06T05:13:50.094Z,3.40
2022-12-06T05:14:50.110Z,3.20
2022-12-06T05:15:50.205Z,2.90
2022-12-06T05:16:50.236Z,3.00
2022-12-06T05:17:50.163Z,3.10
2022-12-06T05:18:50.182Z,2.90
2022-12-06T05:19:50.188Z,2.40
2022-12-06T05:20:50.215Z,3.20
2022-12-06T05:21:50.227Z,2.50
2022-12-06T05:22:50.256Z,2.80
2022-12-06T05:23:50.268Z,2.90
2022-12-06T05:24:50.278Z,2.20
2022-12-06T05:25:50.283Z,2.50
2022-12-06T05:26:50.299Z,2.70
2022-12-06T05:27:50.323Z,2.50
2022-12-06T05:28:50.340Z,2.90
2022-12-06T05:29:50.354Z,2.90
2022-12-06T05:30:50.370Z,2.00
2022-12-06T05:31:50.413Z,3.30
2022-12-06T05:32:56.744Z,2.40
2022-12-06T05:33:50.418Z,2.70
2022-12-06T05:34:50.435Z,2.60
2022-12-06T05:35:50.452Z,2.40
2022-12-06T05:36:50.459Z,3.10
2022-12-06T05:37:50.481Z,3.00
2022-12-06T05:38:51.738Z,2.70
2022-12-06T05:39:50.513Z,2.40
2022-12-06T05:40:50.529Z,2.80
2022-12-06T05:41:50.544Z,3.60
2022-12-06T05:42:50.555Z,2.10
2022-12-06T05:43:50.573Z,3.30
2022-12-06T05:44:50.592Z,3.00
2022-12-06T05:45:50.650Z,3.60
2022-12-06T05:46:50.617Z,2.90
2022-12-06T05:47:50.634Z,2.30
2022-12-06T05:48:50.650Z,2.30
2022-12-06T05:49:50.664Z,3.10
2022-12-06T05:50:50.681Z,3.30
2022-12-06T05:51:50.698Z,2.60
2022-12-06T05:52:50.711Z,2.70
2022-12-06T05:53:50.734Z,3.10
2022-12-06T05:54:50.773Z,3.10
2022-12-06T05:55:50.768Z,2.90
2022-12-06T05:56:50.783Z,2.20
2022-12-06T05:57:50.798Z,2.50
2022-12-06T05:58:50.815Z,3.70
2022-12-06T05:59:50.832Z,2.20
2022-12-06T06:00:50.841Z,3.30
2022-12-06T06:01:50.926Z,2.70
2022-12-06T06:02:51.069Z,3.40
2022-12-06T06:03:50.894Z,2.80
2022-12-06T06:04:50.911Z,3.60
2022-12-06T06:05:50.920Z,3.50
2022-12-06T06:06:50.941Z,2.70
2022-12-06T06:07:51.056Z,2.50
2022-12-06T06:08:50.966Z,2.50
2022-12-06T06:09:50.988Z,3.40
2022-12-06T06:10:51.029Z,3.70
2022-12-06T06:11:51.023Z,3.30
2022-12-06T06:12:51.036Z,3.20
2022-12-06T06:13:51.054Z,3.90
2022-12-06T06:14:51.062Z,2.60
2022-12-06T06:15:51.086Z,3.70
2022-12-06T06:16:51.127Z,2.70
2022-12-06T06:17:51.115Z,3.00
2022-12-06T06:18:51.125Z,2.50
2022-12-06T06:19:51.636Z,2.50
2022-12-06T06:20:51.165Z,2.70
2022-12-06T06:21:51.172Z,3.20
2022-12-06T06:22:51.195Z,3.10
2022-12-06T06:23:51.210Z,2.80
2022-12-06T06:24:51.228Z,2.50
2022-12-06T06:25:51.244Z,2.90
2022-12-06T06:26:51.277Z,2.40
2022-12-06T06:27:51.268Z,2.50
2022-12-06T06:28:51.294Z,3.40
2022-12-06T06:29:51.298Z,2.80
2022-12-06T06:30:51.322Z,2.80
2022-12-06T06:31:51.388Z,2.80
2022-12-06T06:32:51.347Z,2.90
2022-12-06T06:33:51.361Z,2.40
2022-12-06T06:34:51.379Z,3.00
2022-12-06T06:35:51.401Z,2.90
2022-12-06T06:36:51.411Z,3.40
2022-12-06T06:37:51.627Z,1.90
2022-12-06T06:38:51.441Z,3.60
2022-12-06T06:39:51.465Z,2.60
2022-12-06T06:40:51.473Z,2.60
2022-12-06T06:41:51.495Z,2.30
2022-12-06T06:42:51.529Z,2.40
2022-12-06T06:43:51.520Z,3.30
2022-12-06T06:44:51.536Z,2.20
2022-12-06T06:45:51.648Z,1.90
2022-12-06T06:46:51.574Z,2.70
2022-12-06T06:47:51.583Z,2.80
2022-12-06T06:48:51.607Z,2.90
2022-12-06T06:49:51.625Z,2.20
2022-12-06T06:50:56.975Z,2.80
2022-12-06T06:51:51.654Z,2.40
2022-12-06T06:52:51.671Z,3.80
2022-12-06T06:53:51.677Z,2.10
2022-12-06T06:54:51.701Z,2.00
2022-12-06T06:55:51.717Z,2.80
2022-12-06T06:56:51.736Z,3.60
2022-12-06T06:57:51.741Z,3.20
2022-12-06T06:58:51.778Z,2.60
2022-12-06T06:59:51.781Z,2.50
2022-12-06T07:00:51.858Z,2.20
2022-12-06T07:01:51.841Z,2.20
2022-12-06T07:02:51.920Z,3.70
2022-12-06T07:03:51.845Z,2.00
2022-12-06T07:04:51.853Z,2.40
2022-12-06T07:05:51.876Z,3.00
2022-12-06T07:06:51.891Z,2.60
2022-12-06T07:07:51.971Z,3.00
2022-12-06T07:08:51.918Z,2.50
2022-12-06T07:09:51.931Z,2.30
2022-12-06T07:10:51.956Z,2.40
2022-12-06T07:11:51.970Z,2.60
2022-12-06T07:12:51.987Z,2.70
2022-12-06T07:13:52.918Z,2.40
2022-12-06T07:14:52.029Z,2.30
2022-12-06T07:15:52.026Z,3.10
2022-12-06T07:16:52.102Z,2.70
2022-12-06T07:17:52.058Z,3.00
2022-12-06T07:18:52.080Z,2.10
2022-12-06T07:19:52.090Z,2.60
2022-12-06T07:20:52.105Z,1.80
2022-12-06T07:21:52.122Z,2.60
2022-12-06T07:22:52.135Z,2.10
2022-12-06T07:23:52.159Z,1.90
2022-12-06T07:24:52.628Z,2.30
2022-12-06T07:25:52.191Z,2.60
2022-12-06T07:26:52.207Z,1.90
2022-12-06T07:27:52.222Z,1.90
2022-12-06T07:28:52.239Z,2.20
2022-12-06T07:29:52.247Z,1.80
2022-12-06T07:30:52.348Z,2.40
2022-12-06T07:31:52.288Z,3.00
2022-12-06T07:32:52.302Z,1.60
2022-12-06T07:33:52.319Z,1.90
2022-12-06T07:34:52.332Z,2.30
2022-12-06T07:36:13.560Z,1.80
2022-12-06T07:36:52.371Z,1.90
2022-12-06T07:37:52.375Z,1.80
2022-12-06T07:38:52.402Z,2.00
2022-12-06T07:39:52.409Z,2.10
2022-12-06T07:41:07.715Z,2.00
2022-12-06T07:41:52.436Z,3.30
2022-12-06T07:42:52.454Z,2.30
2022-12-06T07:43:52.467Z,2.20
2022-12-06T07:44:55.531Z,1.60
2022-12-06T07:45:52.525Z,1.40
2022-12-06T07:46:52.541Z,1.90
2022-12-06T07:47:52.531Z,3.00
2022-12-06T07:48:52.549Z,2.80
2022-12-06T07:49:52.569Z,2.30
2022-12-06T07:50:52.585Z,1.50
2022-12-06T07:51:52.602Z,1.70
2022-12-06T07:52:52.611Z,2.60
2022-12-06T07:53:52.629Z,1.80
2022-12-06T07:54:52.648Z,1.80
2022-12-06T07:55:52.666Z,1.70
2022-12-06T07:56:52.675Z,1.50
2022-12-06T07:57:52.695Z,3.30
2022-12-06T07:58:52.704Z,1.30
2022-12-06T07:59:52.729Z,1.60
2022-12-06T08:00:52.743Z,1.60
2022-12-06T08:01:52.908Z,1.90
2022-12-06T08:02:52.798Z,1.80
2022-12-06T08:03:52.783Z,1.70
2022-12-06T08:04:52.926Z,1.50
2022-12-06T08:05:52.814Z,1.30
2022-12-06T08:06:52.840Z,2.30
2022-12-06T08:07:52.890Z,1.50
2022-12-06T08:08:52.865Z,1.30
2022-12-06T08:09:52.878Z,1.30
2022-12-06T08:10:52.900Z,1.40
2022-12-06T08:11:52.911Z,1.80
2022-12-06T08:12:52.927Z,2.50
2022-12-06T08:13:52.949Z,1.20
2022-12-06T08:14:58.126Z,1.60
2022-12-06T08:15:53.055Z,2.30
2022-12-06T08:16:52.991Z,1.30
2022-12-06T08:17:53.005Z,2.00
2022-12-06T08:18:53.045Z,1.80
2022-12-06T08:19:53.036Z,1.60
2022-12-06T08:20:53.059Z,1.60
2022-12-06T08:21:53.082Z,1.50
2022-12-06T08:22:53.091Z,1.50
2022-12-06T08:23:53.097Z,1.30
2022-12-06T08:24:53.118Z,1.10
2022-12-06T08:25:53.131Z,1.60
2022-12-06T08:26:53.149Z,2.50
2022-12-06T08:27:53.168Z,1.50
2022-12-06T08:28:53.190Z,1.40
2022-12-06T08:29:53.192Z,1.50
2022-12-06T08:30:55.941Z,1.20
2022-12-06T08:31:53.232Z,2.30
2022-12-06T08:32:53.247Z,1.40
2022-12-06T08:33:53.263Z,1.60
2022-12-06T08:34:53.288Z,1.10
2022-12-06T08:35:53.291Z,1.70
2022-12-06T08:36:53.303Z,1.00
2022-12-06T08:37:53.318Z,1.10
2022-12-06T08:38:53.334Z,1.30
2022-12-06T08:39:53.357Z,1.50
2022-12-06T08:40:53.367Z,1.20
2022-12-06T08:41:53.389Z,1.10
2022-12-06T08:42:53.397Z,1.60
2022-12-06T08:43:53.414Z,1.30
2022-12-06T08:44:53.431Z,2.30
2022-12-06T08:45:53.519Z,1.00
2022-12-06T08:46:53.468Z,2.00
2022-12-06T08:47:53.483Z,1.80
2022-12-06T08:48:53.501Z,1.10
2022-12-06T08:49:53.514Z,2.10
2022-12-06T08:50:53.539Z,1.10
2022-12-06T08:51:53.550Z,1.00
2022-12-06T08:52:53.563Z,1.60
2022-12-06T08:53:53.578Z,1.20
2022-12-06T08:54:53.593Z,1.30
2022-12-06T08:55:58.682Z,1.40
2022-12-06T08:56:53.619Z,1.30
2022-12-06T08:57:53.640Z,1.10
2022-12-06T08:58:53.657Z,1.00
2022-12-06T08:59:53.672Z,1.00
2022-12-06T09:00:53.689Z,0.90
2022-12-06T09:01:53.728Z,1.20
2022-12-06T09:02:53.720Z,1.70
2022-12-06T09:03:53.729Z,2.10
2022-12-06T09:04:53.814Z,1.60
2022-12-06T09:05:53.770Z,1.00
2022-12-06T09:06:53.802Z,1.40
2022-12-06T09:07:53.857Z,1.00
2022-12-06T09:08:53.805Z,1.20
2022-12-06T09:09:53.821Z,1.30
2022-12-06T09:10:53.846Z,1.10
2022-12-06T09:11:53.855Z,1.20
2022-12-06T09:12:53.878Z,1.20
2022-12-06T09:13:53.890Z,1.00
2022-12-06T09:14:53.907Z,1.30
2022-12-06T09:15:53.985Z,1.10
2022-12-06T09:16:53.933Z,2.00
2022-12-06T09:17:53.957Z,1.20
2022-12-06T09:18:53.963Z,0.90
2022-12-06T09:19:53.978Z,1.20
2022-12-06T09:20:53.996Z,0.70
2022-12-06T09:21:54.011Z,1.80
2022-12-06T09:22:54.449Z,0.80
2022-12-06T09:23:54.049Z,1.30
2022-12-06T09:24:54.058Z,1.20
2022-12-06T09:25:54.075Z,0.80
2022-12-06T09:26:54.097Z,0.90
2022-12-06T09:27:54.106Z,1.10
2022-12-06T09:28:54.122Z,1.20
2022-12-06T09:29:54.143Z,1.20
2022-12-06T09:30:54.181Z,1.20
2022-12-06T09:31:54.178Z,1.00
2022-12-06T09:32:54.184Z,1.10
2022-12-06T09:33:54.208Z,1.10
2022-12-06T09:34:54.221Z,1.00
2022-12-06T09:35:54.231Z,0.90
2022-12-06T09:36:54.248Z,1.10
2022-12-06T09:37:54.269Z,0.90
2022-12-06T09:38:54.304Z,0.90
2022-12-06T09:39:54.301Z,1.50
2022-12-06T09:40:54.315Z,1.00
2022-12-06T09:41:54.325Z,1.00
2022-12-06T09:42:54.339Z,1.30
2022-12-06T09:43:54.364Z,1.90
2022-12-06T09:44:54.380Z,1.00
2022-12-06T09:45:54.388Z,1.00
2022-12-06T09:46:54.456Z,1.30
2022-12-06T09:47:54.421Z,1.00
2022-12-06T09:48:54.443Z,1.00
2022-12-06T09:49:54.449Z,1.30
2022-12-06T09:50:54.472Z,0.90
2022-12-06T09:51:54.489Z,1.10
2022-12-06T09:52:54.505Z,1.20
2022-12-06T09:53:54.512Z,1.50
2022-12-06T09:55:00.140Z,1.10
2022-12-06T09:55:54.551Z,1.00
2022-12-06T09:56:54.563Z,0.80
2022-12-06T09:57:54.577Z,1.00
2022-12-06T09:58:54.601Z,1.20
2022-12-06T09:59:54.617Z,1.10
2022-12-06T10:00:54.623Z,1.30
2022-12-06T10:01:54.755Z,0.90
2022-12-06T10:02:54.692Z,1.40
2022-12-06T10:03:54.671Z,0.70
2022-12-06T10:04:54.692Z,1.10
2022-12-06T10:05:54.708Z,1.00
2022-12-06T10:06:54.718Z,1.60
2022-12-06T10:07:54.827Z,1.00
2022-12-06T10:08:54.935Z,1.30
2022-12-06T10:09:54.764Z,1.00
2022-12-06T10:10:54.820Z,1.40
2022-12-06T10:11:54.802Z,1.20
2022-12-06T10:12:54.814Z,0.80
2022-12-06T10:13:54.833Z,1.60
2022-12-06T10:14:54.850Z,0.90
2022-12-06T10:15:54.919Z,0.80
2022-12-06T10:16:54.877Z,1.20
2022-12-06T10:17:54.904Z,1.00
2022-12-06T10:18:54.912Z,1.40
2022-12-06T10:19:54.920Z,1.00
2022-12-06T10:20:54.950Z,1.20
2022-12-06T10:21:54.951Z,1.10
2022-12-06T10:22:54.976Z,1.30
2022-12-06T10:24:00.104Z,1.30
2022-12-06T10:24:55.009Z,2.60
2022-12-06T10:25:55.033Z,1.00
2022-12-06T10:26:55.064Z,0.80
2022-12-06T10:27:55.046Z,1.10
2022-12-06T10:28:55.071Z,0.90
2022-12-06T10:29:55.085Z,1.60
2022-12-06T10:30:55.141Z,1.10
2022-12-06T10:31:55.151Z,0.80
2022-12-06T10:32:55.133Z,0.90
2022-12-06T10:33:55.150Z,0.70
2022-12-06T10:34:55.163Z,0.80
2022-12-06T10:35:55.180Z,0.80
2022-12-06T10:36:55.188Z,1.30
2022-12-06T10:37:55.204Z,0.80
2022-12-06T10:38:55.218Z,1.40
2022-12-06T10:39:55.242Z,1.10
2022-12-06T10:40:55.258Z,0.90
2022-12-06T10:41:55.265Z,0.90
2022-12-06T10:42:55.314Z,0.90
2022-12-06T10:43:55.305Z,1.60
2022-12-06T10:44:55.312Z,0.80
2022-12-06T10:45:55.337Z,0.50
2022-12-06T10:46:55.417Z,1.00
2022-12-06T10:47:55.360Z,1.70
2022-12-06T10:48:55.384Z,1.30
2022-12-06T10:49:55.389Z,0.60
2022-12-06T10:50:55.415Z,0.50
2022-12-06T10:51:55.422Z,1.10
2022-12-06T10:53:01.526Z,0.90
2022-12-06T10:53:55.455Z,0.60
2022-12-06T10:54:55.470Z,1.00
2022-12-06T10:55:55.492Z,0.80
2022-12-06T10:56:55.510Z,0.70
2022-12-06T10:57:55.517Z,0.60
2022-12-06T10:58:55.548Z,1.00
2022-12-06T10:59:55.548Z,0.70
2022-12-06T11:00:55.681Z,1.30
2022-12-06T11:01:55.752Z,0.90
2022-12-06T11:02:55.602Z,1.10
2022-12-06T11:03:55.611Z,0.90
2022-12-06T11:04:55.829Z,1.40
2022-12-06T11:05:55.650Z,1.40
2022-12-06T11:06:55.659Z,0.50
2022-12-06T11:07:55.743Z,0.70
2022-12-06T11:08:55.695Z,0.80
2022-12-06T11:09:55.722Z,0.60
2022-12-06T11:10:55.726Z,1.40
2022-12-06T11:11:55.743Z,0.60
2022-12-06T11:12:55.760Z,0.90
2022-12-06T11:13:55.773Z,0.80
2022-12-06T11:14:55.808Z,1.30
2022-12-06T11:15:55.851Z,0.80
2022-12-06T11:16:55.827Z,0.80
2022-12-06T11:18:00.856Z,1.10
2022-12-06T11:18:55.851Z,1.50
2022-12-06T11:19:55.867Z,0.60
2022-12-06T11:20:55.883Z,0.70
2022-12-06T11:21:55.893Z,0.90
2022-12-06T11:22:55.908Z,0.50
2022-12-06T11:23:55.931Z,0.90
2022-12-06T11:24:55.940Z,0.60
2022-12-06T11:25:55.957Z,0.60
2022-12-06T11:26:55.977Z,0.80
2022-12-06T11:27:55.994Z,0.70
2022-12-06T11:28:56.000Z,1.30
2022-12-06T11:29:56.025Z,1.00
2022-12-06T11:30:56.051Z,0.70
2022-12-06T11:31:56.128Z,0.80
2022-12-06T11:32:56.064Z,0.60
2022-12-06T11:33:56.086Z,1.10
2022-12-06T11:34:56.097Z,0.90
2022-12-06T11:35:56.118Z,0.50
2022-12-06T11:37:00.195Z,0.60
2022-12-06T11:37:56.142Z,1.30
2022-12-06T11:38:56.157Z,0.90
2022-12-06T11:39:56.173Z,1.20
2022-12-06T11:40:56.190Z,0.50
2022-12-06T11:41:56.214Z,0.80
2022-12-06T11:42:56.228Z,0.60
2022-12-06T11:43:56.244Z,0.70
2022-12-06T11:44:56.252Z,1.40
2022-12-06T11:45:56.273Z,0.80
2022-12-06T11:46:56.399Z,1.10
2022-12-06T11:47:56.298Z,0.70
2022-12-06T11:48:56.322Z,0.60
2022-12-06T11:49:56.338Z,1.10
2022-12-06T11:50:56.344Z,1.20
2022-12-06T11:51:56.368Z,0.90
2022-12-06T11:52:56.387Z,1.00
2022-12-06T11:53:56.395Z,1.40
2022-12-06T11:54:56.407Z,0.70
2022-12-06T11:55:56.442Z,0.70
2022-12-06T11:56:56.451Z,1.00
2022-12-06T11:57:56.456Z,0.70
2022-12-06T11:58:56.477Z,0.50
2022-12-06T11:59:56.581Z,0.70
2022-12-06T12:00:56.509Z,1.50
2022-12-06T12:01:56.554Z,0.80
2022-12-06T12:02:56.607Z,0.50
2022-12-06T12:03:56.550Z,0.50
2022-12-06T12:04:56.581Z,0.70
2022-12-06T12:05:56.582Z,0.90
2022-12-06T12:06:56.595Z,1.30
2022-12-06T12:07:56.653Z,0.40
2022-12-06T12:08:56.627Z,0.70
2022-12-06T12:09:56.643Z,0.80
2022-12-06T12:10:56.667Z,1.50
2022-12-06T12:11:56.682Z,1.10
2022-12-06T12:12:56.697Z,0.70
2022-12-06T12:13:56.705Z,1.10
2022-12-06T12:14:56.720Z,1.10
2022-12-06T12:15:56.737Z,0.50
2022-12-06T12:16:56.860Z,0.80
2022-12-06T12:17:56.774Z,0.50
2022-12-06T12:18:56.803Z,0.50
2022-12-06T12:19:56.799Z,0.80
2022-12-06T12:20:56.825Z,0.70
2022-12-06T12:21:56.831Z,0.60
2022-12-06T12:22:56.854Z,0.50
2022-12-06T12:23:56.865Z,0.70
2022-12-06T12:25:17.993Z,0.60
2022-12-06T12:25:56.900Z,1.20
2022-12-06T12:26:56.918Z,0.40
2022-12-06T12:27:56.932Z,0.50
2022-12-06T12:28:56.942Z,0.50
2022-12-06T12:29:56.962Z,0.80
2022-12-06T12:30:56.980Z,0.90
2022-12-06T12:31:57.150Z,0.60
2022-12-06T12:32:57.005Z,0.40
2022-12-06T12:33:57.021Z,0.60
2022-12-06T12:34:57.053Z,0.90
2022-12-06T12:35:57.057Z,0.80
2022-12-06T12:36:57.074Z,0.60
2022-12-06T12:37:57.081Z,1.00
2022-12-06T12:38:57.100Z,0.30
2022-12-06T12:39:57.115Z,0.70
2022-12-06T12:40:57.136Z,0.70
2022-12-06T12:41:57.155Z,0.60
2022-12-06T12:42:57.166Z,1.10
2022-12-06T12:44:20.468Z,0.70
2022-12-06T12:44:57.323Z,0.50
2022-12-06T12:46:02.399Z,0.60
2022-12-06T12:46:57.234Z,0.40
2022-12-06T12:47:57.240Z,0.50
2022-12-06T12:48:57.265Z,0.80
2022-12-06T12:49:57.272Z,0.60
2022-12-06T12:50:57.307Z,0.50
2022-12-06T12:51:57.309Z,0.50
2022-12-06T12:52:57.329Z,1.10
2022-12-06T12:53:57.343Z,0.80
2022-12-06T12:54:57.360Z,0.70
2022-12-06T12:55:57.372Z,0.60
2022-12-06T12:56:57.382Z,0.50
2022-12-06T12:57:57.403Z,0.50
2022-12-06T12:58:57.417Z,0.50
2022-12-06T12:59:57.435Z,0.50
2022-12-06T13:00:57.492Z,0.60
2022-12-06T13:01:57.554Z,0.50
2022-12-06T13:02:57.474Z,0.60
2022-12-06T13:03:57.498Z,1.30
2022-12-06T13:05:17.152Z,0.50
2022-12-06T13:05:57.527Z,0.80
2022-12-06T13:06:57.566Z,0.50
2022-12-06T13:07:57.621Z,0.80
2022-12-06T13:08:57.568Z,1.10
2022-12-06T13:09:57.584Z,0.50
2022-12-06T13:10:59.153Z,0.50
2022-12-06T13:11:57.617Z,0.60
2022-12-06T13:12:57.640Z,0.50
2022-12-06T13:13:57.648Z,0.50
2022-12-06T13:14:57.848Z,1.40
2022-12-06T13:15:57.679Z,0.60
2022-12-06T13:16:57.768Z,0.60
2022-12-06T13:17:59.754Z,0.50
2022-12-06T13:18:57.734Z,0.60